sensor_id;sensor_type;location;lat;lon;timestamp;pressure;altitude;pressure_sealevel;temperature;humidity
18678;BME280;9469;51.114;13.914;2022-10-16T00:02:58;98553.72;;;15.16;100.00
18678;BME280;9469;51.114;13.914;2022-10-16T00:08:03;98555.50;;;15.12;100.00
18678;BME280;9469;51.114;13.914;2022-10-16T00:13:10;98564.88;;;15.05;100.00
18678;BME280;9469;51.114;13.914;2022-10-16T00:18:15;98567.13;;;15.03;100.00
18678;BME280;9469;51.114;13.914;2022-10-16T00:23:20;98568.13;;;14.99;100.00
18678;BME280;9469;51.114;13.914;2022-10-16T00:28:28;98571.91;;;14.98;100.00
18678;BME280;9469;51.114;13.914;2022-10-16T00:33:33;98584.50;;;14.97;100.00
18678;BME280;9469;51.114;13.914;2022-10-16T00:38:38;98582.16;;;14.96;100.00
18678;BME280;9469;51.114;13.914;2022-10-16T00:43:48;98579.94;;;14.98;100.00
18678;BME280;9469;51.114;13.914;2022-10-16T00:48:57;98595.88;;;14.94;100.00
18678;BME280;9469;51.114;13.914;2022-10-16T00:54:09;98588.84;;;14.90;100.00
18678;BME280;9469;51.114;13.914;2022-10-16T00:59:24;98584.47;;;14.85;100.00
18678;BME280;9469;51.114;13.914;2022-10-16T01:04:37;98597.88;;;14.85;100.00
18678;BME280;9469;51.114;13.914;2022-10-16T01:09:53;98587.56;;;14.75;100.00
18678;BME280;9469;51.114;13.914;2022-10-16T01:15:10;98592.13;;;14.75;100.00
18678;BME280;9469;51.114;13.914;2022-10-16T01:20:24;98591.72;;;14.85;100.00
18678;BME280;9469;51.114;13.914;2022-10-16T01:25:39;98582.44;;;14.82;100.00
18678;BME280;9469;51.114;13.914;2022-10-16T01:30:53;98590.84;;;14.93;100.00
18678;BME280;9469;51.114;13.914;2022-10-16T01:36:06;98589.59;;;14.90;100.00
18678;BME280;9469;51.114;13.914;2022-10-16T01:41:16;98603.63;;;15.08;100.00
18678;BME280;9469;51.114;13.914;2022-10-16T01:46:26;98608.88;;;15.17;100.00
18678;BME280;9469;51.114;13.914;2022-10-16T01:51:32;98605.31;;;15.25;100.00
18678;BME280;9469;51.114;13.914;2022-10-16T01:56:39;98609.47;;;15.34;100.00
18678;BME280;9469;51.114;13.914;2022-10-16T02:01:51;98602.88;;;15.32;100.00
18678;BME280;9469;51.114;13.914;2022-10-16T02:06:57;98604.25;;;15.38;100.00
18678;BME280;9469;51.114;13.914;2022-10-16T02:12:07;98620.25;;;15.46;100.00
18678;BME280;9469;51.114;13.914;2022-10-16T02:17:17;98618.34;;;15.47;100.00
18678;BME280;9469;51.114;13.914;2022-10-16T02:22:27;98620.88;;;15.43;100.00
18678;BME280;9469;51.114;13.914;2022-10-16T02:27:34;98622.22;;;15.37;100.00
18678;BME280;9469;51.114;13.914;2022-10-16T02:32:47;98622.53;;;15.36;100.00
18678;BME280;9469;51.114;13.914;2022-10-16T02:37:53;98615.06;;;15.41;100.00
18678;BME280;9469;51.114;13.914;2022-10-16T02:42:59;98617.97;;;15.36;100.00
18678;BME280;9469;51.114;13.914;2022-10-16T02:48:07;98625.78;;;15.41;100.00
18678;BME280;9469;51.114;13.914;2022-10-16T02:53:12;98623.25;;;15.45;100.00
18678;BME280;9469;51.114;13.914;2022-10-16T02:58:17;98617.41;;;15.43;100.00
18678;BME280;9469;51.114;13.914;2022-10-16T03:03:24;98614.09;;;15.46;100.00
18678;BME280;9469;51.114;13.914;2022-10-16T03:08:29;98610.50;;;15.42;100.00
18678;BME280;9469;51.114;13.914;2022-10-16T03:13:34;98609.19;;;15.48;100.00
18678;BME280;9469;51.114;13.914;2022-10-16T03:18:41;98610.41;;;15.50;100.00
18678;BME280;9469;51.114;13.914;2022-10-16T03:23:46;98629.53;;;15.49;100.00
18678;BME280;9469;51.114;13.914;2022-10-16T03:28:51;98633.75;;;15.50;100.00
18678;BME280;9469;51.114;13.914;2022-10-16T03:33:59;98631.66;;;15.55;100.00
18678;BME280;9469;51.114;13.914;2022-10-16T03:39:03;98633.88;;;15.53;100.00
18678;BME280;9469;51.114;13.914;2022-10-16T03:44:08;98646.28;;;15.58;100.00
18678;BME280;9469;51.114;13.914;2022-10-16T03:49:16;98645.81;;;15.56;100.00
18678;BME280;9469;51.114;13.914;2022-10-16T03:54:21;98644.47;;;15.50;100.00
18678;BME280;9469;51.114;13.914;2022-10-16T03:59:26;98654.34;;;15.58;100.00
18678;BME280;9469;51.114;13.914;2022-10-16T04:04:33;98660.34;;;15.55;100.00
18678;BME280;9469;51.114;13.914;2022-10-16T04:09:38;98650.06;;;15.57;100.00
18678;BME280;9469;51.114;13.914;2022-10-16T04:14:43;98651.88;;;15.53;100.00
18678;BME280;9469;51.114;13.914;2022-10-16T04:19:51;98644.56;;;15.41;100.00
18678;BME280;9469;51.114;13.914;2022-10-16T04:24:56;98660.69;;;15.53;100.00
18678;BME280;9469;51.114;13.914;2022-10-16T04:30:01;98669.94;;;15.56;100.00
18678;BME280;9469;51.114;13.914;2022-10-16T04:35:08;98667.25;;;15.56;100.00
18678;BME280;9469;51.114;13.914;2022-10-16T04:40:13;98667.75;;;15.58;100.00
18678;BME280;9469;51.114;13.914;2022-10-16T04:45:18;98672.88;;;15.51;100.00
18678;BME280;9469;51.114;13.914;2022-10-16T04:50:26;98672.41;;;15.61;100.00
18678;BME280;9469;51.114;13.914;2022-10-16T04:55:42;98672.41;;;15.61;100.00
18678;BME280;9469;51.114;13.914;2022-10-16T05:00:47;98686.56;;;15.49;100.00
18678;BME280;9469;51.114;13.914;2022-10-16T05:05:55;98678.53;;;15.49;100.00
18678;BME280;9469;51.114;13.914;2022-10-16T05:11:00;98677.59;;;15.33;100.00
18678;BME280;9469;51.114;13.914;2022-10-16T05:16:05;98691.38;;;15.44;100.00
18678;BME280;9469;51.114;13.914;2022-10-16T05:21:13;98681.44;;;15.56;100.00
18678;BME280;9469;51.114;13.914;2022-10-16T05:26:18;98685.28;;;15.55;100.00
18678;BME280;9469;51.114;13.914;2022-10-16T05:31:23;98694.22;;;15.59;100.00
18678;BME280;9469;51.114;13.914;2022-10-16T05:36:30;98704.28;;;15.62;100.00
18678;BME280;9469;51.114;13.914;2022-10-16T05:41:35;98700.81;;;15.62;100.00
18678;BME280;9469;51.114;13.914;2022-10-16T05:46:40;98686.41;;;15.66;100.00
18678;BME280;9469;51.114;13.914;2022-10-16T05:51:47;98703.94;;;15.64;100.00
18678;BME280;9469;51.114;13.914;2022-10-16T05:56:52;98712.06;;;15.55;100.00
18678;BME280;9469;51.114;13.914;2022-10-16T06:01:57;98727.88;;;15.69;100.00
18678;BME280;9469;51.114;13.914;2022-10-16T06:07:04;98742.63;;;15.75;100.00
18678;BME280;9469;51.114;13.914;2022-10-16T06:12:09;98744.72;;;15.69;100.00
18678;BME280;9469;51.114;13.914;2022-10-16T06:17:14;98739.94;;;15.75;100.00
18678;BME280;9469;51.114;13.914;2022-10-16T06:22:22;98743.75;;;15.86;100.00
18678;BME280;9469;51.114;13.914;2022-10-16T06:27:27;98747.44;;;16.06;100.00
18678;BME280;9469;51.114;13.914;2022-10-16T06:32:32;98766.59;;;16.16;100.00
18678;BME280;9469;51.114;13.914;2022-10-16T06:37:39;98770.28;;;16.12;100.00
18678;BME280;9469;51.114;13.914;2022-10-16T06:42:44;98759.34;;;16.17;100.00
18678;BME280;9469;51.114;13.914;2022-10-16T06:47:49;98774.41;;;16.09;100.00
18678;BME280;9469;51.114;13.914;2022-10-16T06:52:56;98770.16;;;16.20;100.00
18678;BME280;9469;51.114;13.914;2022-10-16T06:58:03;98794.44;;;16.36;100.00
18678;BME280;9469;51.114;13.914;2022-10-16T07:03:08;98796.59;;;16.55;100.00
18678;BME280;9469;51.114;13.914;2022-10-16T07:08:15;98802.72;;;16.43;100.00
18678;BME280;9469;51.114;13.914;2022-10-16T07:13:20;98811.78;;;16.87;100.00
18678;BME280;9469;51.114;13.914;2022-10-16T07:18:25;98819.41;;;16.73;100.00
18678;BME280;9469;51.114;13.914;2022-10-16T07:23:34;98820.88;;;16.70;100.00
18678;BME280;9469;51.114;13.914;2022-10-16T07:28:39;98824.78;;;16.61;100.00
18678;BME280;9469;51.114;13.914;2022-10-16T07:33:44;98830.13;;;16.85;100.00
18678;BME280;9469;51.114;13.914;2022-10-16T07:38:52;98844.34;;;17.09;100.00
18678;BME280;9469;51.114;13.914;2022-10-16T07:44:01;98854.31;;;17.09;100.00
18678;BME280;9469;51.114;13.914;2022-10-16T07:49:05;98860.47;;;17.09;100.00
18678;BME280;9469;51.114;13.914;2022-10-16T07:54:13;98858.75;;;17.17;100.00
18678;BME280;9469;51.114;13.914;2022-10-16T07:59:18;98869.94;;;17.31;100.00
18678;BME280;9469;51.114;13.914;2022-10-16T08:04:23;98870.81;;;17.35;100.00
18678;BME280;9469;51.114;13.914;2022-10-16T08:09:30;98869.69;;;17.36;100.00
18678;BME280;9469;51.114;13.914;2022-10-16T08:14:35;98872.78;;;17.62;100.00
18678;BME280;9469;51.114;13.914;2022-10-16T08:19:45;98859.13;;;17.83;100.00
18678;BME280;9469;51.114;13.914;2022-10-16T08:24:52;98861.16;;;17.86;100.00
18678;BME280;9469;51.114;13.914;2022-10-16T08:29:57;98868.97;;;17.91;100.00
18678;BME280;9469;51.114;13.914;2022-10-16T08:35:02;98862.81;;;17.90;100.00
18678;BME280;9469;51.114;13.914;2022-10-16T08:40:16;98860.63;;;17.96;100.00
18678;BME280;9469;51.114;13.914;2022-10-16T08:45:44;98878.75;;;18.27;100.00
18678;BME280;9469;51.114;13.914;2022-10-16T08:50:54;98882.69;;;18.29;100.00
18678;BME280;9469;51.114;13.914;2022-10-16T08:56:02;98887.53;;;18.39;100.00
18678;BME280;9469;51.114;13.914;2022-10-16T09:01:12;98872.19;;;19.21;100.00
18678;BME280;9469;51.114;13.914;2022-10-16T09:06:27;98874.28;;;20.46;100.00
18678;BME280;9469;51.114;13.914;2022-10-16T09:11:44;98872.78;;;22.64;96.32
18678;BME280;9469;51.114;13.914;2022-10-16T09:16:55;98867.25;;;23.73;88.49
18678;BME280;9469;51.114;13.914;2022-10-16T09:22:09;98868.09;;;23.08;92.62
18678;BME280;9469;51.114;13.914;2022-10-16T09:27:17;98868.00;;;22.50;93.76
18678;BME280;9469;51.114;13.914;2022-10-16T09:32:23;98872.69;;;25.74;81.06
18678;BME280;9469;51.114;13.914;2022-10-16T09:37:28;98877.84;;;25.36;81.28
18678;BME280;9469;51.114;13.914;2022-10-16T09:42:36;98889.38;;;23.03;90.09
18678;BME280;9469;51.114;13.914;2022-10-16T09:47:43;98893.88;;;22.81;92.89
18678;BME280;9469;51.114;13.914;2022-10-16T09:52:48;98885.72;;;23.39;92.17
18678;BME280;9469;51.114;13.914;2022-10-16T09:57:55;98896.97;;;22.83;91.40
18678;BME280;9469;51.114;13.914;2022-10-16T10:03:00;98902.19;;;23.06;91.97
18678;BME280;9469;51.114;13.914;2022-10-16T10:08:05;98915.31;;;23.00;93.23
18678;BME280;9469;51.114;13.914;2022-10-16T10:13:21;98910.91;;;24.26;87.23
18678;BME280;9469;51.114;13.914;2022-10-16T10:18:26;98910.38;;;23.88;87.68
18678;BME280;9469;51.114;13.914;2022-10-16T10:23:33;98913.41;;;23.66;85.50
18678;BME280;9469;51.114;13.914;2022-10-16T10:28:50;98923.78;;;24.53;82.15
18678;BME280;9469;51.114;13.914;2022-10-16T10:34:06;98922.84;;;24.00;81.18
18678;BME280;9469;51.114;13.914;2022-10-16T10:39:22;98930.69;;;24.08;84.80
18678;BME280;9469;51.114;13.914;2022-10-16T10:44:51;98938.50;;;24.24;84.16
18678;BME280;9469;51.114;13.914;2022-10-16T10:50:05;98930.50;;;23.70;84.00
18678;BME280;9469;51.114;13.914;2022-10-16T10:55:19;98923.38;;;23.44;85.77
18678;BME280;9469;51.114;13.914;2022-10-16T11:00:38;98941.56;;;22.89;86.25
18678;BME280;9469;51.114;13.914;2022-10-16T11:05:49;98939.59;;;23.33;86.23
18678;BME280;9469;51.114;13.914;2022-10-16T11:10:58;98927.66;;;23.45;85.64
18678;BME280;9469;51.114;13.914;2022-10-16T11:16:13;98934.84;;;23.20;86.10
18678;BME280;9469;51.114;13.914;2022-10-16T11:21:23;98934.03;;;23.84;83.69
18678;BME280;9469;51.114;13.914;2022-10-16T11:26:34;98927.69;;;22.94;86.83
18678;BME280;9469;51.114;13.914;2022-10-16T11:31:46;98934.28;;;22.93;87.63
18678;BME280;9469;51.114;13.914;2022-10-16T11:36:56;98936.53;;;22.84;87.26
18678;BME280;9469;51.114;13.914;2022-10-16T11:42:07;98940.63;;;23.18;87.63
18678;BME280;9469;51.114;13.914;2022-10-16T11:47:26;98944.72;;;23.45;83.45
18678;BME280;9469;51.114;13.914;2022-10-16T11:52:55;98952.22;;;23.08;83.79
18678;BME280;9469;51.114;13.914;2022-10-16T11:58:06;98959.28;;;22.36;85.93
18678;BME280;9469;51.114;13.914;2022-10-16T12:03:22;98959.28;;;23.23;82.16
18678;BME280;9469;51.114;13.914;2022-10-16T12:08:33;98960.75;;;23.10;85.23
18678;BME280;9469;51.114;13.914;2022-10-16T12:13:41;98962.00;;;22.72;84.19
18678;BME280;9469;51.114;13.914;2022-10-16T12:19:07;98955.22;;;22.59;85.88
18678;BME280;9469;51.114;13.914;2022-10-16T12:24:27;98961.19;;;22.72;86.23
18678;BME280;9469;51.114;13.914;2022-10-16T12:29:36;98963.47;;;23.14;85.24
18678;BME280;9469;51.114;13.914;2022-10-16T12:34:45;98959.16;;;22.62;86.52
18678;BME280;9469;51.114;13.914;2022-10-16T12:39:53;98957.91;;;22.56;87.09
18678;BME280;9469;51.114;13.914;2022-10-16T12:44:59;98965.41;;;22.33;87.93
18678;BME280;9469;51.114;13.914;2022-10-16T12:50:29;98968.75;;;22.19;87.56
18678;BME280;9469;51.114;13.914;2022-10-16T12:55:50;98976.44;;;22.13;88.44
18678;BME280;9469;51.114;13.914;2022-10-16T13:00:57;98984.16;;;22.45;87.19
18678;BME280;9469;51.114;13.914;2022-10-16T13:06:19;98989.88;;;22.40;87.41
18678;BME280;9469;51.114;13.914;2022-10-16T13:11:45;98987.47;;;22.31;88.00
18678;BME280;9469;51.114;13.914;2022-10-16T13:17:01;98989.06;;;22.36;87.95
18678;BME280;9469;51.114;13.914;2022-10-16T13:22:18;98988.75;;;22.41;88.33
18678;BME280;9469;51.114;13.914;2022-10-16T13:27:33;98996.13;;;22.10;90.02
18678;BME280;9469;51.114;13.914;2022-10-16T13:32:45;99000.84;;;21.84;91.18
18678;BME280;9469;51.114;13.914;2022-10-16T13:38:03;98993.31;;;22.33;89.37
18678;BME280;9469;51.114;13.914;2022-10-16T13:43:08;99000.69;;;22.03;90.50
18678;BME280;9469;51.114;13.914;2022-10-16T13:48:14;98992.91;;;21.98;91.91
18678;BME280;9469;51.114;13.914;2022-10-16T13:53:21;98996.63;;;21.86;91.91
18678;BME280;9469;51.114;13.914;2022-10-16T13:58:26;99004.16;;;22.00;93.38
18678;BME280;9469;51.114;13.914;2022-10-16T14:03:32;99014.41;;;21.87;95.40
18678;BME280;9469;51.114;13.914;2022-10-16T14:08:43;99009.31;;;21.82;97.24
18678;BME280;9469;51.114;13.914;2022-10-16T14:13:49;99019.94;;;21.68;99.06
18678;BME280;9469;51.114;13.914;2022-10-16T14:18:57;99030.34;;;21.66;99.35
18678;BME280;9469;51.114;13.914;2022-10-16T14:24:14;99026.13;;;21.69;97.78
18678;BME280;9469;51.114;13.914;2022-10-16T14:29:28;99024.72;;;21.52;97.96
18678;BME280;9469;51.114;13.914;2022-10-16T14:34:36;99020.38;;;21.74;98.93
18678;BME280;9469;51.114;13.914;2022-10-16T14:39:49;99021.59;;;21.76;98.25
18678;BME280;9469;51.114;13.914;2022-10-16T14:44:55;99020.63;;;21.88;98.10
18678;BME280;9469;51.114;13.914;2022-10-16T14:50:00;99023.31;;;21.88;97.52
18678;BME280;9469;51.114;13.914;2022-10-16T14:55:09;99036.56;;;21.44;100.00
18678;BME280;9469;51.114;13.914;2022-10-16T15:00:18;99044.91;;;21.58;100.00
18678;BME280;9469;51.114;13.914;2022-10-16T15:05:25;99050.50;;;21.20;100.00
18678;BME280;9469;51.114;13.914;2022-10-16T15:10:38;99060.50;;;20.97;100.00
18678;BME280;9469;51.114;13.914;2022-10-16T15:15:44;99054.84;;;20.83;100.00
18678;BME280;9469;51.114;13.914;2022-10-16T15:20:51;99058.91;;;20.54;100.00
18678;BME280;9469;51.114;13.914;2022-10-16T15:25:58;99071.94;;;20.67;100.00
18678;BME280;9469;51.114;13.914;2022-10-16T15:31:04;99084.59;;;20.63;100.00
18678;BME280;9469;51.114;13.914;2022-10-16T15:36:09;99083.63;;;20.52;100.00
18678;BME280;9469;51.114;13.914;2022-10-16T15:41:17;99090.09;;;20.48;100.00
18678;BME280;9469;51.114;13.914;2022-10-16T15:46:23;99097.13;;;20.52;100.00
18678;BME280;9469;51.114;13.914;2022-10-16T15:51:29;99096.69;;;20.31;100.00
18678;BME280;9469;51.114;13.914;2022-10-16T15:56:38;99097.75;;;20.11;100.00
18678;BME280;9469;51.114;13.914;2022-10-16T16:01:43;99099.31;;;19.77;100.00
18678;BME280;9469;51.114;13.914;2022-10-16T16:06:48;99104.31;;;19.60;100.00
18678;BME280;9469;51.114;13.914;2022-10-16T16:11:55;99116.47;;;19.85;100.00
18678;BME280;9469;51.114;13.914;2022-10-16T16:17:02;99124.56;;;19.85;100.00
18678;BME280;9469;51.114;13.914;2022-10-16T16:22:07;99127.75;;;19.56;100.00
18678;BME280;9469;51.114;13.914;2022-10-16T16:27:16;99129.81;;;19.62;100.00
18678;BME280;9469;51.114;13.914;2022-10-16T16:32:21;99138.41;;;19.37;100.00
18678;BME280;9469;51.114;13.914;2022-10-16T16:37:26;99143.41;;;19.22;100.00
18678;BME280;9469;51.114;13.914;2022-10-16T16:42:34;99155.94;;;19.15;100.00
18678;BME280;9469;51.114;13.914;2022-10-16T16:47:39;99162.69;;;19.09;100.00
18678;BME280;9469;51.114;13.914;2022-10-16T16:52:44;99166.91;;;19.06;100.00
18678;BME280;9469;51.114;13.914;2022-10-16T16:57:51;99180.22;;;18.87;100.00
18678;BME280;9469;51.114;13.914;2022-10-16T17:02:56;99186.41;;;18.36;100.00
18678;BME280;9469;51.114;13.914;2022-10-16T17:08:01;99193.13;;;18.30;100.00
18678;BME280;9469;51.114;13.914;2022-10-16T17:13:09;99205.81;;;18.17;100.00
18678;BME280;9469;51.114;13.914;2022-10-16T17:18:14;99210.75;;;18.27;100.00
18678;BME280;9469;51.114;13.914;2022-10-16T17:23:19;99210.50;;;17.72;100.00
18678;BME280;9469;51.114;13.914;2022-10-16T17:28:27;99222.31;;;18.04;100.00
18678;BME280;9469;51.114;13.914;2022-10-16T17:33:32;99218.72;;;18.12;100.00
18678;BME280;9469;51.114;13.914;2022-10-16T17:38:37;99222.31;;;18.04;100.00
18678;BME280;9469;51.114;13.914;2022-10-16T17:43:46;99221.41;;;17.87;100.00
18678;BME280;9469;51.114;13.914;2022-10-16T17:48:53;99236.53;;;17.92;100.00
18678;BME280;9469;51.114;13.914;2022-10-16T17:54:00;99246.38;;;17.64;100.00
18678;BME280;9469;51.114;13.914;2022-10-16T17:59:09;99252.25;;;17.45;100.00
18678;BME280;9469;51.114;13.914;2022-10-16T18:04:16;99260.28;;;17.66;100.00
18678;BME280;9469;51.114;13.914;2022-10-16T18:09:21;99266.78;;;17.65;100.00
18678;BME280;9469;51.114;13.914;2022-10-16T18:14:30;99285.06;;;17.71;100.00
18678;BME280;9469;51.114;13.914;2022-10-16T18:19:35;99285.78;;;17.27;100.00
18678;BME280;9469;51.114;13.914;2022-10-16T18:24:41;99292.06;;;16.90;100.00
18678;BME280;9469;51.114;13.914;2022-10-16T18:29:49;99294.84;;;17.23;100.00
18678;BME280;9469;51.114;13.914;2022-10-16T18:34:57;99307.94;;;17.03;100.00
18678;BME280;9469;51.114;13.914;2022-10-16T18:40:15;99311.88;;;17.06;100.00
18678;BME280;9469;51.114;13.914;2022-10-16T18:45:20;99318.63;;;17.12;100.00
18678;BME280;9469;51.114;13.914;2022-10-16T18:50:25;99322.38;;;17.19;100.00
18678;BME280;9469;51.114;13.914;2022-10-16T18:55:33;99316.34;;;17.02;100.00
18678;BME280;9469;51.114;13.914;2022-10-16T19:00:39;99322.50;;;17.02;100.00
18678;BME280;9469;51.114;13.914;2022-10-16T19:05:44;99314.03;;;16.92;100.00
18678;BME280;9469;51.114;13.914;2022-10-16T19:10:52;99322.03;;;16.51;100.00
18678;BME280;9469;51.114;13.914;2022-10-16T19:15:58;99310.50;;;16.41;100.00
18678;BME280;9469;51.114;13.914;2022-10-16T19:21:21;99300.69;;;16.16;100.00
18678;BME280;9469;51.114;13.914;2022-10-16T19:26:31;99309.00;;;16.23;100.00
18678;BME280;9469;51.114;13.914;2022-10-16T19:31:42;99317.16;;;16.35;100.00
18678;BME280;9469;51.114;13.914;2022-10-16T19:36:48;99333.81;;;16.67;100.00
18678;BME280;9469;51.114;13.914;2022-10-16T19:41:55;99348.41;;;16.48;100.00
18678;BME280;9469;51.114;13.914;2022-10-16T19:47:00;99366.31;;;16.27;100.00
18678;BME280;9469;51.114;13.914;2022-10-16T19:52:05;99368.06;;;16.15;100.00
18678;BME280;9469;51.114;13.914;2022-10-16T19:57:13;99355.84;;;15.88;100.00
18678;BME280;9469;51.114;13.914;2022-10-16T20:02:20;99357.59;;;15.84;100.00
18678;BME280;9469;51.114;13.914;2022-10-16T20:07:26;99355.53;;;15.72;100.00
18678;BME280;9469;51.114;13.914;2022-10-16T20:12:38;99363.59;;;15.64;100.00
18678;BME280;9469;51.114;13.914;2022-10-16T20:17:43;99353.97;;;15.54;100.00
18678;BME280;9469;51.114;13.914;2022-10-16T20:22:48;99358.25;;;15.64;100.00
18678;BME280;9469;51.114;13.914;2022-10-16T20:27:57;99355.72;;;15.76;100.00
18678;BME280;9469;51.114;13.914;2022-10-16T20:33:02;99369.91;;;15.85;100.00
18678;BME280;9469;51.114;13.914;2022-10-16T20:38:11;99374.31;;;15.81;100.00
18678;BME280;9469;51.114;13.914;2022-10-16T20:43:19;99368.97;;;15.72;100.00
18678;BME280;9469;51.114;13.914;2022-10-16T20:48:24;99367.38;;;15.80;100.00
18678;BME280;9469;51.114;13.914;2022-10-16T20:53:29;99386.94;;;15.63;100.00
18678;BME280;9469;51.114;13.914;2022-10-16T20:58:40;99377.78;;;15.73;100.00
18678;BME280;9469;51.114;13.914;2022-10-16T21:03:49;99375.75;;;15.70;100.00
18678;BME280;9469;51.114;13.914;2022-10-16T21:08:54;99392.97;;;15.69;100.00
18678;BME280;9469;51.114;13.914;2022-10-16T21:14:04;99394.53;;;15.53;100.00
18678;BME280;9469;51.114;13.914;2022-10-16T21:19:11;99408.41;;;15.72;100.00
18678;BME280;9469;51.114;13.914;2022-10-16T21:24:16;99416.28;;;15.77;100.00
18678;BME280;9469;51.114;13.914;2022-10-16T21:29:24;99420.09;;;15.76;100.00
18678;BME280;9469;51.114;13.914;2022-10-16T21:34:29;99420.88;;;15.68;100.00
18678;BME280;9469;51.114;13.914;2022-10-16T21:39:34;99426.22;;;15.59;100.00
18678;BME280;9469;51.114;13.914;2022-10-16T21:44:41;99439.66;;;15.51;100.00
18678;BME280;9469;51.114;13.914;2022-10-16T21:49:46;99438.16;;;15.28;100.00
18678;BME280;9469;51.114;13.914;2022-10-16T21:54:51;99432.00;;;15.19;100.00
18678;BME280;9469;51.114;13.914;2022-10-16T21:59:59;99432.72;;;15.02;100.00
18678;BME280;9469;51.114;13.914;2022-10-16T22:05:09;99433.72;;;15.15;100.00
18678;BME280;9469;51.114;13.914;2022-10-16T22:10:14;99434.69;;;15.27;100.00
18678;BME280;9469;51.114;13.914;2022-10-16T22:15:22;99434.47;;;15.06;100.00
18678;BME280;9469;51.114;13.914;2022-10-16T22:20:27;99420.72;;;14.91;100.00
18678;BME280;9469;51.114;13.914;2022-10-16T22:25:32;99433.63;;;14.89;100.00
18678;BME280;9469;51.114;13.914;2022-10-16T22:30:40;99424.31;;;14.78;100.00
18678;BME280;9469;51.114;13.914;2022-10-16T22:35:45;99441.34;;;14.90;100.00
18678;BME280;9469;51.114;13.914;2022-10-16T22:40:49;99454.47;;;15.00;100.00
18678;BME280;9469;51.114;13.914;2022-10-16T22:46:00;99465.81;;;14.97;100.00
18678;BME280;9469;51.114;13.914;2022-10-16T22:51:05;99458.41;;;14.94;100.00
18678;BME280;9469;51.114;13.914;2022-10-16T22:56:12;99449.47;;;14.68;100.00
18678;BME280;9469;51.114;13.914;2022-10-16T23:01:24;99449.75;;;14.58;100.00
18678;BME280;9469;51.114;13.914;2022-10-16T23:06:30;99437.56;;;14.52;100.00
18678;BME280;9469;51.114;13.914;2022-10-16T23:11:35;99456.53;;;14.64;100.00
18678;BME280;9469;51.114;13.914;2022-10-16T23:16:42;99458.88;;;14.57;100.00
18678;BME280;9469;51.114;13.914;2022-10-16T23:21:47;99454.78;;;14.60;100.00
18678;BME280;9469;51.114;13.914;2022-10-16T23:26:52;99461.38;;;14.54;100.00
18678;BME280;9469;51.114;13.914;2022-10-16T23:31:59;99468.63;;;14.53;100.00
18678;BME280;9469;51.114;13.914;2022-10-16T23:37:04;99460.09;;;14.51;100.00
18678;BME280;9469;51.114;13.914;2022-10-16T23:42:09;99475.53;;;14.54;100.00
18678;BME280;9469;51.114;13.914;2022-10-16T23:47:16;99479.81;;;14.55;100.00
18678;BME280;9469;51.114;13.914;2022-10-16T23:52:21;99478.72;;;14.56;100.00
18678;BME280;9469;51.114;13.914;2022-10-16T23:57:26;99483.16;;;14.61;100.00
